createdAt,value
2019-01-05T00:00:29.781Z,4.68
2019-01-05T00:05:38.881Z,3.75
2019-01-05T00:10:48.137Z,2.97
2019-01-05T00:15:57.226Z,2.63
2019-01-05T00:21:06.589Z,2.24
2019-01-05T00:26:15.776Z,2.92
2019-01-05T00:31:25.012Z,2.86
2019-01-05T00:36:34.077Z,2.71
2019-01-05T00:41:43.308Z,2.93
2019-01-05T00:46:52.416Z,2.73
2019-01-05T00:52:01.741Z,3.10
2019-01-05T00:57:10.865Z,3.92
2019-01-05T01:02:20.096Z,3.53
2019-01-05T01:07:29.220Z,4.44
2019-01-05T01:12:38.545Z,5.34
2019-01-05T01:17:47.614Z,6.26
2019-01-05T01:22:56.883Z,6.24
2019-01-05T01:28:05.993Z,6.49
2019-01-05T01:33:15.280Z,6.48
2019-01-05T01:38:24.388Z,5.98
2019-01-05T01:43:33.670Z,5.29
2019-01-05T01:48:42.868Z,7.75
2019-01-05T01:53:52.111Z,4.44
2019-01-05T01:59:01.227Z,4.68
2019-01-05T02:04:10.451Z,4.82
2019-01-05T02:09:19.589Z,4.76
2019-01-05T02:14:28.850Z,5.44
2019-01-05T02:19:37.957Z,4.92
2019-01-05T02:24:47.247Z,5.81
2019-01-05T02:29:56.369Z,6.57
2019-01-05T02:35:05.603Z,6.71
2019-01-05T02:40:14.676Z,6.27
2019-01-05T02:45:23.874Z,6.03
2019-01-05T02:50:32.967Z,5.50
2019-01-05T02:55:42.265Z,4.92
2019-01-05T03:00:51.458Z,5.18
2019-01-05T03:06:00.693Z,5.14
2019-01-05T03:11:10.077Z,5.09
2019-01-05T03:16:19.374Z,5.15
2019-01-05T03:21:28.578Z,5.71
2019-01-05T03:26:37.816Z,5.79
2019-01-05T03:31:47.065Z,5.21
2019-01-05T03:36:56.447Z,5.73
2019-01-05T03:42:05.547Z,5.50
2019-01-05T03:47:14.840Z,5.23
2019-01-05T03:53:28.849Z,5.72
2019-01-05T03:58:38.076Z,4.52
2019-01-05T04:03:47.281Z,4.53
2019-01-05T04:08:56.598Z,4.36
2019-01-05T04:14:05.733Z,4.04
2019-01-05T04:19:14.989Z,3.60
2019-01-05T04:24:24.166Z,3.35
2019-01-05T04:29:33.449Z,3.08
2019-01-05T04:34:42.605Z,3.12
2019-01-05T04:39:51.861Z,2.72
2019-01-05T04:45:00.954Z,3.12
2019-01-05T04:50:10.178Z,2.87
2019-01-05T04:55:19.345Z,2.67
2019-01-05T05:00:28.638Z,2.73
2019-01-05T05:05:37.785Z,2.57
2019-01-05T05:10:46.995Z,2.80
2019-01-05T05:15:56.191Z,2.85
2019-01-05T05:21:05.511Z,2.91
2019-01-05T05:26:14.605Z,2.91
2019-01-05T05:31:23.851Z,3.28
2019-01-05T05:36:33.184Z,2.95
2019-01-05T05:41:42.386Z,3.32
2019-01-05T05:46:51.602Z,3.39
2019-01-05T05:52:00.793Z,3.40
2019-01-05T05:57:09.985Z,3.86
2019-01-05T06:02:19.249Z,3.46
2019-01-05T06:07:28.422Z,3.34
2019-01-05T06:12:37.714Z,3.75
2019-01-05T06:17:46.826Z,3.64
2019-01-05T06:22:56.147Z,3.80
2019-01-05T06:28:05.353Z,4.00
2019-01-05T06:33:14.655Z,3.87
2019-01-05T06:38:23.833Z,3.89
2019-01-05T06:43:33.357Z,4.12
2019-01-05T06:48:42.482Z,4.51
2019-01-05T06:53:52.099Z,4.25
2019-01-05T06:59:01.305Z,4.38
2019-01-05T07:04:10.592Z,4.42
2019-01-05T07:09:19.775Z,4.75
2019-01-05T07:14:29.634Z,4.95
2019-01-05T07:19:38.741Z,5.11
2019-01-05T07:24:48.198Z,5.61
2019-01-05T07:29:57.394Z,5.71
2019-01-05T07:35:06.705Z,5.68
2019-01-05T07:40:15.859Z,5.50
2019-01-05T07:45:25.127Z,5.34
2019-01-05T07:50:34.258Z,5.78
2019-01-05T07:55:43.458Z,5.88
2019-01-05T08:00:52.841Z,5.60
2019-01-05T08:06:02.134Z,6.01
2019-01-05T08:11:11.258Z,5.53
2019-01-05T08:16:20.529Z,6.23
2019-01-05T08:21:29.686Z,6.17
2019-01-05T08:26:38.952Z,5.89
2019-01-05T08:31:48.165Z,6.40
2019-01-05T08:36:57.422Z,6.28
2019-01-05T08:42:06.597Z,5.87
2019-01-05T08:47:15.822Z,6.54
2019-01-05T08:52:25.022Z,6.62
2019-01-05T08:57:34.324Z,7.65
2019-01-05T09:02:43.581Z,7.53
2019-01-05T09:07:52.968Z,7.11
2019-01-05T09:13:02.073Z,7.43
2019-01-05T09:18:11.609Z,7.56
2019-01-05T09:23:20.703Z,7.85
2019-01-05T09:28:30.025Z,7.73
2019-01-05T09:33:39.214Z,10.49
2019-01-05T09:38:48.466Z,10.04
2019-01-05T09:43:57.665Z,9.20
2019-01-05T09:49:07.036Z,7.97
2019-01-05T09:54:16.177Z,8.72
2019-01-05T09:59:25.384Z,13.57
2019-01-05T10:04:34.574Z,15.31
2019-01-05T10:09:43.834Z,9.65
2019-01-05T10:14:52.986Z,8.43
2019-01-05T10:20:02.225Z,11.68
2019-01-05T10:25:11.450Z,8.82
2019-01-05T10:30:20.693Z,7.88
2019-01-05T10:35:29.793Z,9.09
2019-01-05T10:40:39.097Z,12.62
2019-01-05T10:45:48.277Z,10.67
2019-01-05T10:50:57.589Z,8.58
2019-01-05T10:56:06.817Z,9.17
2019-01-05T11:01:16.446Z,11.78
2019-01-05T11:06:25.551Z,8.97
2019-01-05T11:11:34.887Z,8.71
2019-01-05T11:16:43.959Z,9.32
2019-01-05T11:21:53.273Z,10.06
2019-01-05T11:27:02.565Z,8.89
2019-01-05T11:32:11.825Z,9.18
2019-01-05T11:37:21.041Z,8.56
2019-01-05T11:42:30.256Z,12.70
2019-01-05T11:47:39.674Z,13.96
2019-01-05T11:52:48.999Z,8.68
2019-01-05T11:57:58.193Z,10.57
2019-01-05T12:03:07.449Z,8.79
2019-01-05T12:08:16.577Z,10.11
2019-01-05T12:13:25.798Z,10.13
2019-01-05T12:18:34.993Z,9.54
2019-01-05T12:23:44.308Z,9.61
2019-01-05T12:28:53.699Z,9.53
2019-01-05T12:34:02.935Z,9.23
2019-01-05T12:39:12.150Z,8.73
2019-01-05T12:44:21.452Z,9.03
2019-01-05T12:49:30.680Z,9.35
2019-01-05T12:54:39.917Z,9.35
2019-01-05T12:59:49.029Z,10.53
2019-01-05T13:04:58.340Z,9.49
2019-01-05T13:10:07.524Z,9.73
2019-01-05T13:15:16.741Z,9.94
2019-01-05T13:20:25.938Z,12.67
2019-01-05T13:25:35.243Z,10.03
2019-01-05T13:30:44.404Z,9.96
2019-01-05T13:35:53.964Z,9.48
2019-01-05T13:41:03.074Z,10.48
2019-01-05T13:46:12.576Z,10.30
2019-01-05T13:51:21.916Z,15.08
2019-01-05T13:56:31.135Z,11.10
2019-01-05T14:01:39.069Z,10.97
2019-01-05T14:06:48.546Z,9.55
2019-01-05T14:11:57.752Z,9.70
2019-01-05T14:17:07.342Z,10.09
2019-01-05T14:22:16.662Z,8.96
2019-01-05T14:27:26.077Z,10.75
2019-01-05T14:32:35.266Z,10.69
2019-01-05T14:37:44.810Z,11.22
2019-01-05T14:42:54.326Z,10.54
2019-01-05T14:48:03.635Z,11.48
2019-01-05T14:53:12.774Z,10.43
2019-01-05T14:58:21.962Z,10.80
2019-01-05T15:03:31.342Z,10.89
2019-01-05T15:08:40.990Z,11.30
2019-01-05T15:13:50.672Z,11.63
2019-01-05T15:18:59.913Z,10.87
2019-01-05T15:24:09.342Z,10.14
2019-01-05T15:29:18.514Z,10.35
2019-01-05T15:34:27.718Z,11.01
2019-01-05T15:39:37.110Z,11.27
2019-01-05T15:44:46.258Z,11.91
2019-01-05T15:49:55.455Z,11.09
2019-01-05T15:55:04.885Z,10.05
2019-01-05T16:00:14.690Z,10.88
2019-01-05T16:05:23.806Z,12.08
2019-01-05T16:10:33.209Z,11.37
2019-01-05T16:15:42.447Z,11.95
2019-01-05T16:20:51.701Z,9.78
2019-01-05T16:26:01.089Z,10.40
2019-01-05T16:31:10.503Z,10.19
2019-01-05T16:36:19.896Z,10.55
2019-01-05T16:41:29.179Z,10.66
2019-01-05T16:46:38.308Z,10.73
2019-01-05T16:51:47.590Z,10.77
2019-01-05T16:56:56.922Z,10.65
2019-01-05T17:02:06.232Z,10.82
2019-01-05T17:07:15.362Z,10.81
2019-01-05T17:12:29.246Z,11.25
2019-01-05T17:17:33.456Z,12.22
2019-01-05T17:22:42.729Z,10.81
2019-01-05T17:27:51.870Z,12.08
2019-01-05T17:33:01.129Z,10.64
2019-01-05T17:38:10.481Z,11.76
2019-01-05T17:43:19.777Z,11.93
2019-01-05T17:48:29.010Z,13.02
2019-01-05T17:53:38.213Z,13.29
2019-01-05T17:58:47.329Z,13.04
2019-01-05T18:03:56.634Z,14.00
2019-01-05T18:09:05.985Z,14.10
2019-01-05T18:14:15.574Z,14.75
2019-01-05T18:19:25.134Z,13.55
2019-01-05T18:24:34.426Z,14.42
2019-01-05T18:29:43.522Z,13.74
2019-01-05T18:34:52.823Z,14.58
2019-01-05T18:40:02.107Z,16.58
2019-01-05T18:45:11.467Z,15.14
2019-01-05T18:50:20.879Z,14.49
2019-01-05T18:55:30.083Z,14.54
2019-01-05T19:00:39.182Z,14.17
2019-01-05T19:05:48.485Z,14.58
2019-01-05T19:10:57.604Z,14.61
2019-01-05T19:16:07.136Z,15.27
2019-01-05T19:21:16.560Z,17.44
2019-01-05T19:26:26.006Z,14.79
2019-01-05T19:31:35.232Z,15.16
2019-01-05T19:36:45.638Z,15.94
2019-01-05T19:41:44.853Z,15.94
2019-01-05T19:46:53.444Z,15.12
2019-01-05T19:52:02.543Z,15.34
2019-01-05T19:57:13.068Z,15.89
2019-01-05T20:02:20.404Z,15.87
2019-01-05T20:07:29.656Z,16.84
2019-01-05T20:12:38.963Z,17.45
2019-01-05T20:17:48.470Z,18.62
2019-01-05T20:22:57.574Z,17.79
2019-01-05T20:28:06.904Z,17.95
2019-01-05T20:33:16.274Z,18.04
2019-01-05T20:38:25.485Z,18.58
2019-01-05T20:43:34.572Z,18.80
2019-01-05T20:48:43.917Z,18.36
2019-01-05T20:53:53.027Z,19.98
2019-01-05T20:59:02.335Z,21.16
2019-01-05T21:04:11.446Z,20.22
2019-01-05T21:09:20.668Z,21.31
2019-01-05T21:14:29.916Z,19.78
2019-01-05T21:19:39.397Z,19.10
2019-01-05T21:24:48.669Z,18.17
2019-01-05T21:29:58.214Z,19.11
2019-01-05T21:35:07.298Z,20.21
2019-01-05T21:40:16.683Z,19.65
2019-01-05T21:45:25.910Z,21.12
2019-01-05T21:50:35.382Z,20.78
2019-01-05T21:55:44.480Z,20.14
2019-01-05T22:00:53.800Z,19.36
2019-01-05T22:06:02.999Z,19.27
2019-01-05T22:11:12.417Z,19.01
2019-01-05T22:16:21.537Z,20.02
2019-01-05T22:21:30.809Z,20.68
2019-01-05T22:26:40.073Z,21.02
2019-01-05T22:31:49.309Z,22.58
2019-01-05T22:36:58.436Z,21.79
2019-01-05T22:42:07.632Z,21.96
2019-01-05T22:47:16.719Z,22.91
2019-01-05T22:52:26.027Z,22.53
2019-01-05T22:57:35.205Z,23.77
2019-01-05T23:02:44.426Z,24.09
2019-01-05T23:07:53.613Z,24.03
2019-01-05T23:13:02.845Z,23.65
2019-01-05T23:18:12.090Z,24.47
2019-01-05T23:23:21.315Z,23.55
2019-01-05T23:28:30.673Z,22.79
2019-01-05T23:33:39.909Z,23.53
2019-01-05T23:38:50.313Z,24.10
2019-01-05T23:43:57.841Z,22.57
2019-01-05T23:49:07.019Z,23.07
2019-01-05T23:54:16.333Z,22.25
2019-01-05T23:59:25.499Z,22.12
